Time;durP1;ratioP1;P1;durP2;ratioP2;P2;SDS_P1;SDS_P2;PMS_P1;PMS_P2;Temp;Humidity;BMP_temperature;BMP_pressure;BME280_temperature;BME280_humidity;BME280_pressure;Samples;Min_cycle;Max_cycle;Signal;HPM_P1;HPM_P2
2023/09/12 00:00:05;;;;;;;12.80;6.80;;;;;;;18.29;100.00;100074.84;5002595;28;20271;-73
2023/09/12 00:02:32;;;;;;;18.33;7.63;;;;;;;18.28;100.00;100070.38;4988139;28;20220;-73
2023/09/12 00:04:58;;;;;;;13.07;7.90;;;;;;;18.30;100.00;100073.91;4988549;28;20570;-73
2023/09/12 00:07:25;;;;;;;11.93;6.95;;;;;;;18.31;100.00;100061.38;4986825;28;20703;-73
2023/09/12 00:09:51;;;;;;;15.10;8.27;;;;;;;18.36;100.00;100067.53;4985778;28;20220;-73
2023/09/12 00:12:23;;;;;;;15.67;7.80;;;;;;;18.52;100.00;100070.75;4987986;28;20209;-73
2023/09/12 00:14:50;;;;;;;19.57;7.30;;;;;;;18.54;100.00;100069.78;4984615;28;20663;-73
2023/09/12 00:17:16;;;;;;;16.40;7.23;;;;;;;18.56;100.00;100067.94;4986113;28;20602;-73
2023/09/12 00:19:43;;;;;;;14.37;6.80;;;;;;;18.48;100.00;100072.63;4987175;28;20623;-73
2023/09/12 00:22:09;;;;;;;9.33;6.97;;;;;;;18.42;100.00;100072.78;4986989;28;20208;-73
2023/09/12 00:24:37;;;;;;;11.70;7.20;;;;;;;18.37;100.00;100070.16;4986963;28;20305;-73
2023/09/12 00:27:05;;;;;;;14.53;7.70;;;;;;;18.32;100.00;100064.03;4988309;28;20641;-73
2023/09/12 00:29:32;;;;;;;15.70;7.60;;;;;;;18.34;100.00;100055.94;4988355;28;20394;-73
2023/09/12 00:31:58;;;;;;;12.37;7.60;;;;;;;18.32;100.00;100057.78;4982947;28;20236;-73
2023/09/12 00:34:25;;;;;;;11.00;6.60;;;;;;;18.30;100.00;100056.94;4987963;28;20196;-73
2023/09/12 00:36:51;;;;;;;12.97;7.73;;;;;;;18.27;100.00;100054.34;4985468;28;20220;-73
2023/09/12 00:39:18;;;;;;;15.27;8.10;;;;;;;18.31;100.00;100058.72;4987344;28;20252;-73
2023/09/12 00:41:45;;;;;;;16.13;7.93;;;;;;;18.44;100.00;100054.84;4982661;28;21544;-73
2023/09/12 00:44:11;;;;;;;14.57;7.40;;;;;;;18.41;100.00;100049.53;4987531;28;21261;-73
2023/09/12 00:46:39;;;;;;;13.15;7.50;;;;;;;18.27;100.00;100051.66;4987395;28;20208;-73
2023/09/12 00:49:07;;;;;;;13.17;7.70;;;;;;;18.15;100.00;100055.50;4983265;28;20227;-73
2023/09/12 00:51:35;;;;;;;20.20;8.50;;;;;;;18.07;100.00;100041.41;4987460;28;20690;-73
2023/09/12 00:54:02;;;;;;;16.23;7.70;;;;;;;18.03;100.00;100039.72;4988138;28;20251;-73
2023/09/12 00:56:28;;;;;;;14.17;7.87;;;;;;;17.89;100.00;100031.09;4988635;28;20205;-73
2023/09/12 00:58:56;;;;;;;13.43;7.57;;;;;;;17.79;100.00;100030.41;4983916;28;20206;-73
2023/09/12 01:01:23;;;;;;;15.43;8.20;;;;;;;17.75;100.00;100040.31;4988222;28;20228;-73
2023/09/12 01:03:50;;;;;;;15.60;7.97;;;;;;;17.70;100.00;100036.84;4987023;28;20694;-73
2023/09/12 01:06:19;;;;;;;12.77;7.63;;;;;;;17.68;100.00;100035.13;4985214;28;20208;-73
2023/09/12 01:08:46;;;;;;;12.47;7.80;;;;;;;17.74;100.00;100045.72;4985655;28;20723;-73
2023/09/12 01:11:14;;;;;;;17.27;9.30;;;;;;;17.65;100.00;100051.22;4982193;28;20610;-73
2023/09/12 01:13:40;;;;;;;19.17;8.43;;;;;;;17.75;100.00;100047.47;4988538;28;20649;-73
2023/09/12 01:16:06;;;;;;;14.83;8.10;;;;;;;17.81;100.00;100037.50;4985514;28;20685;-73
2023/09/12 01:18:33;;;;;;;14.07;8.20;;;;;;;17.92;100.00;100044.41;4981484;28;20328;-73
2023/09/12 01:21:38;;;;;;;14.80;8.37;;;;;;;17.87;100.00;100047.19;4983679;28;20227;-73
2023/09/12 01:24:20;;;;;;;17.57;9.63;;;;;;;17.85;100.00;100039.19;4989485;28;20204;-73
2023/09/12 01:27:17;;;;;;;16.97;8.43;;;;;;;17.73;100.00;100042.16;4988401;28;20209;-73
2023/09/12 01:29:46;;;;;;;21.93;10.17;;;;;;;17.61;100.00;100047.75;4985358;28;20203;-73
2023/09/12 01:32:14;;;;;;;11.93;8.10;;;;;;;17.48;100.00;100048.88;4989781;28;20660;-73
2023/09/12 01:34:40;;;;;;;12.17;8.17;;;;;;;17.36;100.00;100051.81;4990845;28;20212;-73
2023/09/12 01:37:07;;;;;;;16.17;8.63;;;;;;;17.26;100.00;100056.47;4991222;28;20575;-73
2023/09/12 01:39:33;;;;;;;15.37;8.83;;;;;;;17.18;100.00;100053.91;4984215;28;20215;-73
2023/09/12 01:42:01;;;;;;;15.77;8.33;;;;;;;17.10;100.00;100054.97;5013755;23;20668;-74
2023/09/12 01:44:30;;;;;;;12.90;9.00;;;;;;;17.01;100.00;100053.34;4991507;28;20201;-76
2023/09/12 01:47:01;;;;;;;12.93;8.60;;;;;;;16.99;100.00;100054.28;4995021;28;20266;-75
2023/09/12 01:49:28;;;;;;;16.10;9.47;;;;;;;17.14;100.00;100044.19;5005633;28;20295;-73
2023/09/12 01:51:55;;;;;;;15.37;9.27;;;;;;;17.25;100.00;100051.16;5006349;28;20220;-74
2023/09/12 01:54:22;;;;;;;14.67;9.80;;;;;;;17.26;100.00;100055.59;4990830;28;20418;-75
2023/09/12 01:56:50;;;;;;;14.43;8.90;;;;;;;17.11;100.00;100056.72;4983739;28;20209;-73
2023/09/12 01:59:17;;;;;;;20.77;9.97;;;;;;;17.00;100.00;100056.94;4985662;28;20200;-73
2023/09/12 02:01:43;;;;;;;19.33;9.53;;;;;;;17.00;100.00;100053.38;4991323;28;20233;-74
2023/09/12 02:04:10;;;;;;;18.30;8.87;;;;;;;16.91;100.00;100055.31;4988058;28;20770;-73
2023/09/12 02:06:36;;;;;;;16.90;9.97;;;;;;;16.84;100.00;100048.31;4988053;28;20767;-74
2023/09/12 02:09:03;;;;;;;19.90;10.33;;;;;;;16.88;100.00;100049.16;4986126;28;20480;-75
2023/09/12 02:11:29;;;;;;;21.30;10.90;;;;;;;16.91;100.00;100041.06;5004284;28;20225;-73
2023/09/12 02:13:55;;;;;;;18.27;10.97;;;;;;;17.06;100.00;100031.84;4989288;28;20228;-73
2023/09/12 02:16:22;;;;;;;17.80;9.93;;;;;;;17.22;100.00;100036.03;4987617;28;20224;-74
2023/09/12 02:18:48;;;;;;;17.63;10.17;;;;;;;17.18;100.00;100034.28;4986308;28;20307;-74
2023/09/12 02:21:18;;;;;;;14.97;9.70;;;;;;;17.08;100.00;100024.69;4991818;28;20220;-74
2023/09/12 02:23:44;;;;;;;16.43;10.73;;;;;;;17.06;100.00;100026.50;5006400;28;20205;-74
2023/09/12 02:26:11;;;;;;;17.90;10.10;;;;;;;17.02;100.00;100025.69;4982087;28;20230;-73
2023/09/12 02:28:37;;;;;;;19.67;10.30;;;;;;;16.97;100.00;100029.38;4987159;28;20205;-73
2023/09/12 02:31:09;;;;;;;15.60;9.87;;;;;;;16.90;100.00;100024.13;4988500;28;20228;-74
2023/09/12 02:33:37;;;;;;;19.27;9.63;;;;;;;16.79;100.00;100018.06;4982942;28;20201;-74
2023/09/12 02:36:05;;;;;;;18.93;10.00;;;;;;;16.78;100.00;100023.44;4990526;28;20307;-73
2023/09/12 02:38:32;;;;;;;16.20;9.80;;;;;;;16.75;100.00;100024.38;4988452;28;20232;-74
2023/09/12 02:40:58;;;;;;;17.27;9.90;;;;;;;17.00;100.00;100021.28;4989797;28;20240;-73
2023/09/12 02:43:25;;;;;;;17.87;10.50;;;;;;;16.93;100.00;100025.88;4990906;28;20255;-73
2023/09/12 02:45:51;;;;;;;15.37;9.83;;;;;;;16.86;100.00;100029.56;4992063;28;20209;-73
2023/09/12 02:48:18;;;;;;;14.60;9.53;;;;;;;16.80;100.00;100029.66;4988880;28;20197;-73
2023/09/12 02:50:45;;;;;;;18.83;9.30;;;;;;;16.74;100.00;100033.31;4987842;28;20221;-73
2023/09/12 02:53:11;;;;;;;16.30;10.40;;;;;;;16.72;100.00;100032.47;4989026;28;20201;-74
2023/09/12 02:55:42;;;;;;;18.83;11.07;;;;;;;16.66;100.00;100032.56;4990144;28;20205;-74
2023/09/12 02:58:08;;;;;;;20.20;10.73;;;;;;;16.65;100.00;100033.44;4989886;28;20217;-76
2023/09/12 03:00:39;;;;;;;18.80;10.73;;;;;;;16.65;100.00;100041.47;4982928;28;20235;-72
2023/09/12 03:03:06;;;;;;;15.63;9.70;;;;;;;16.60;100.00;100022.84;4989053;28;20200;-73
2023/09/12 03:05:33;;;;;;;17.40;10.40;;;;;;;16.66;100.00;100039.72;4984680;28;20325;-73
2023/09/12 03:07:59;;;;;;;16.07;10.43;;;;;;;16.65;100.00;100037.91;4990441;28;20216;-75
2023/09/12 03:10:26;;;;;;;16.77;9.73;;;;;;;16.64;100.00;100031.69;4980413;28;20249;-73
2023/09/12 03:12:52;;;;;;;16.67;9.10;;;;;;;16.60;100.00;100027.31;4990200;28;20289;-74
2023/09/12 03:15:19;;;;;;;18.00;9.77;;;;;;;16.61;100.00;100023.72;4989162;28;20201;-73
2023/09/12 03:17:45;;;;;;;14.77;10.00;;;;;;;16.71;100.00;100021.78;4988941;28;20307;-73
2023/09/12 03:20:12;;;;;;;19.93;10.23;;;;;;;16.86;100.00;100017.06;4986071;28;20201;-75
2023/09/12 03:22:38;;;;;;;14.90;9.70;;;;;;;17.02;100.00;100009.63;4989905;28;20260;-73
2023/09/12 03:25:05;;;;;;;13.97;9.37;;;;;;;17.03;100.00;100005.16;4989674;28;20201;-74
2023/09/12 03:27:35;;;;;;;11.27;8.83;;;;;;;16.94;100.00;100003.56;5003577;28;20690;-73
2023/09/12 03:30:01;;;;;;;15.27;9.10;;;;;;;16.89;100.00;99998.28;4989867;28;20201;-72
2023/09/12 03:32:28;;;;;;;18.10;9.57;;;;;;;16.92;100.00;100002.69;4988321;28;20208;-74
2023/09/12 03:34:54;;;;;;;16.63;8.57;;;;;;;17.00;100.00;99999.88;4987711;28;20205;-74
2023/09/12 03:37:21;;;;;;;16.37;9.97;;;;;;;17.12;100.00;99995.16;4986324;28;20240;-74
2023/09/12 03:39:48;;;;;;;19.60;9.73;;;;;;;17.33;100.00;99999.22;4989872;28;20205;-73
2023/09/12 03:42:14;;;;;;;19.50;9.23;;;;;;;17.42;100.00;99992.78;4988506;28;20256;-74
2023/09/12 03:44:41;;;;;;;15.80;8.77;;;;;;;17.55;100.00;99999.63;4987510;28;20215;-73
2023/09/12 03:47:07;;;;;;;13.43;8.33;;;;;;;17.53;100.00;99999.66;4987400;28;20197;-73
2023/09/12 03:49:34;;;;;;;21.50;8.77;;;;;;;17.49;100.00;100007.81;5003466;28;20201;-74
2023/09/12 03:52:00;;;;;;;17.67;9.20;;;;;;;17.38;100.00;100009.81;4988652;28;20224;-74
2023/09/12 03:54:26;;;;;;;15.57;9.30;;;;;;;17.34;100.00;100010.81;4986128;28;20201;-74
2023/09/12 03:56:53;;;;;;;20.47;10.47;;;;;;;17.40;100.00;100019.59;4983983;28;20201;-73
2023/09/12 03:59:19;;;;;;;19.47;9.57;;;;;;;17.45;100.00;100023.06;4987520;28;20240;-73
2023/09/12 04:01:46;;;;;;;15.47;9.53;;;;;;;17.51;100.00;100025.59;4986797;28;20300;-73
2023/09/12 04:04:12;;;;;;;13.47;9.20;;;;;;;17.46;100.00;100027.50;4988274;28;20207;-74
2023/09/12 04:06:40;;;;;;;13.30;8.50;;;;;;;17.43;100.00;100018.66;4988987;28;20625;-74
2023/09/12 04:09:06;;;;;;;16.77;9.33;;;;;;;17.39;100.00;100011.59;4989468;28;20203;-73
2023/09/12 04:11:33;;;;;;;17.70;9.10;;;;;;;17.42;100.00;100019.56;4986545;28;20229;-74
2023/09/12 04:14:11;;;;;;;15.50;9.07;;;;;;;17.46;100.00;100022.13;4999119;28;20251;-74
2023/09/12 04:16:37;;;;;;;15.53;10.37;;;;;;;17.55;100.00;100021.94;4989014;28;20204;-74
2023/09/12 04:19:04;;;;;;;15.17;9.03;;;;;;;17.75;100.00;100018.00;5005261;28;20221;-74
2023/09/12 04:21:31;;;;;;;18.10;9.77;;;;;;;17.71;100.00;100016.31;4994544;28;20713;-73
2023/09/12 04:23:57;;;;;;;14.00;8.97;;;;;;;17.71;100.00;100013.63;4995838;28;20708;-75
2023/09/12 04:26:23;;;;;;;19.57;9.57;;;;;;;17.64;100.00;100015.53;4995060;28;20694;-73
2023/09/12 04:28:50;;;;;;;14.03;10.20;;;;;;;17.65;100.00;100044.09;4988143;28;20196;-75
2023/09/12 04:31:17;;;;;;;15.97;9.53;;;;;;;17.75;100.00;100034.06;4981646;28;20280;-74
2023/09/12 04:33:43;;;;;;;17.70;10.43;;;;;;;17.76;100.00;100033.16;4981731;28;20201;-74
2023/09/12 04:36:10;;;;;;;20.07;10.20;;;;;;;17.77;100.00;100032.25;4983219;28;20231;-73
2023/09/12 04:38:37;;;;;;;21.13;10.80;;;;;;;17.77;100.00;100022.41;4987799;28;20217;-73
2023/09/12 04:41:05;;;;;;;18.23;10.63;;;;;;;17.85;100.00;100015.09;4984317;28;20225;-73
2023/09/12 04:43:32;;;;;;;21.30;10.97;;;;;;;17.85;100.00;100014.19;4984370;28;20202;-74
2023/09/12 04:45:59;;;;;;;17.20;10.00;;;;;;;17.85;100.00;100016.88;4985881;28;20209;-73
2023/09/12 04:48:25;;;;;;;15.43;10.30;;;;;;;17.82;100.00;100011.59;4987112;28;20284;-73
2023/09/12 04:50:52;;;;;;;18.10;10.20;;;;;;;17.84;100.00;100013.31;5001648;28;20228;-73
2023/09/12 04:53:18;;;;;;;14.30;9.93;;;;;;;17.87;100.00;100016.84;4987558;28;20236;-74
2023/09/12 04:55:45;;;;;;;20.83;10.30;;;;;;;17.95;100.00;100025.59;4987353;28;20212;-73
2023/09/12 04:58:11;;;;;;;18.37;9.60;;;;;;;17.91;100.00;100023.91;4987940;28;20698;-73
2023/09/12 05:00:39;;;;;;;16.40;9.60;;;;;;;17.86;100.00;100029.34;4990924;28;20225;-73
2023/09/12 05:03:06;;;;;;;15.27;9.30;;;;;;;17.82;100.00;100027.66;4987922;28;20205;-74
2023/09/12 05:05:35;;;;;;;23.37;9.10;;;;;;;17.79;100.00;100017.03;4990445;28;20661;-73
2023/09/12 05:08:01;;;;;;;18.97;10.37;;;;;;;17.81;100.00;100018.75;4990387;28;20757;-73
2023/09/12 05:10:28;;;;;;;17.07;9.27;;;;;;;17.82;100.00;100022.31;4987955;28;20231;-72
2023/09/12 05:12:54;;;;;;;15.93;10.13;;;;;;;17.82;100.00;100019.63;4989063;28;20201;-74
2023/09/12 05:15:20;;;;;;;19.40;10.80;;;;;;;17.86;100.00;100013.28;4988489;28;20201;-74
2023/09/12 05:17:47;;;;;;;21.70;11.47;;;;;;;17.89;100.00;100015.00;4988265;28;20540;-73
2023/09/12 05:20:13;;;;;;;18.97;10.73;;;;;;;17.91;100.00;100016.75;4989958;28;20204;-73
2023/09/12 05:22:40;;;;;;;17.65;10.30;;;;;;;18.08;100.00;100019.94;4990408;28;20307;-73
2023/09/12 05:25:06;;;;;;;15.07;10.60;;;;;;;18.14;100.00;100016.22;4989230;28;20207;-73
2023/09/12 05:27:33;;;;;;;19.60;10.63;;;;;;;18.23;100.00;100017.81;4989897;28;20208;-73
2023/09/12 05:29:59;;;;;;;20.47;11.13;;;;;;;18.21;100.00;100014.28;5005896;28;20243;-74
2023/09/12 05:32:28;;;;;;;19.27;11.60;;;;;;;18.30;100.00;100016.72;4989233;28;20315;-73
2023/09/12 05:34:54;;;;;;;20.63;10.53;;;;;;;18.39;100.00;100011.13;4990702;28;20201;-74
2023/09/12 05:37:40;;;;;;;19.03;10.83;;;;;;;18.35;100.00;100018.38;4982015;28;20348;-73
2023/09/12 05:40:07;;;;;;;18.80;11.70;;;;;;;18.37;100.00;100012.97;4987797;28;20643;-73
2023/09/12 05:42:33;;;;;;;15.53;10.30;;;;;;;18.41;100.00;100014.66;4983002;28;20207;-74
2023/09/12 05:45:00;;;;;;;20.00;11.20;;;;;;;18.51;100.00;100004.63;4984401;28;20604;-75
2023/09/12 05:47:27;;;;;;;23.63;11.83;;;;;;;18.60;100.00;100012.41;5000183;28;20219;-73
2023/09/12 05:49:53;;;;;;;18.50;10.50;;;;;;;18.66;100.00;100026.59;4986572;28;20221;-75
2023/09/12 05:52:20;;;;;;;20.13;11.27;;;;;;;18.65;100.00;100030.19;4987967;28;20228;-74
2023/09/12 05:54:46;;;;;;;18.48;10.77;;;;;;;18.69;100.00;100025.63;4988748;28;20248;-73
2023/09/12 05:57:13;;;;;;;21.37;11.50;;;;;;;18.71;100.00;100021.09;4984588;28;20211;-73
2023/09/12 05:59:39;;;;;;;21.55;11.25;;;;;;;18.70;100.00;100033.63;4986779;28;20221;-74
2023/09/12 06:02:08;;;;;;;14.52;9.90;;;;;;;18.68;100.00;100023.88;4987302;28;20228;-74
2023/09/12 06:04:34;;;;;;;25.53;12.77;;;;;;;18.66;100.00;100023.03;4987568;28;20296;-72
2023/09/12 06:07:02;;;;;;;19.53;12.07;;;;;;;18.61;100.00;100015.06;4986672;28;20232;-74
2023/09/12 06:09:29;;;;;;;22.70;11.87;;;;;;;18.58;100.00;100025.00;4987404;28;20209;-75
2023/09/12 06:11:55;;;;;;;23.50;12.93;;;;;;;18.54;100.00;100029.56;5004033;28;20655;-75
2023/09/12 06:14:22;;;;;;;22.73;12.80;;;;;;;18.64;100.00;100036.47;4989753;28;20291;-75
2023/09/12 06:16:48;;;;;;;19.85;12.20;;;;;;;18.63;100.00;100031.16;4990694;28;20212;-75
2023/09/12 06:19:15;;;;;;;20.02;13.07;;;;;;;18.72;100.00;100038.97;4984459;28;20225;-75
2023/09/12 06:21:43;;;;;;;24.73;12.90;;;;;;;18.79;100.00;100046.81;4991794;28;20228;-75
2023/09/12 06:24:14;;;;;;;21.08;12.75;;;;;;;18.96;100.00;100049.06;4992309;28;20296;-74
2023/09/12 06:26:41;;;;;;;21.17;13.00;;;;;;;19.10;100.00;100049.56;4988793;28;20201;-75
2023/09/12 06:29:08;;;;;;;20.65;12.70;;;;;;;19.18;100.00;100046.69;4990340;28;20284;-74
2023/09/12 06:31:38;;;;;;;18.38;11.98;;;;;;;19.23;100.00;100046.59;4989008;28;20283;-75
2023/09/12 06:34:04;;;;;;;25.02;12.75;;;;;;;19.31;100.00;100048.13;4993204;28;20216;-75
2023/09/12 06:36:31;;;;;;;26.83;13.27;;;;;;;19.40;100.00;100039.81;4992377;28;20208;-74
2023/09/12 06:38:58;;;;;;;26.00;13.15;;;;;;;19.52;100.00;100051.13;4992013;28;20220;-75
2023/09/12 06:41:26;;;;;;;22.55;12.57;;;;;;;19.69;100.00;100049.75;4991293;28;20221;-74
2023/09/12 06:43:53;;;;;;;25.05;12.43;;;;;;;19.93;100.00;100050.81;4988344;28;20211;-75
2023/09/12 06:46:20;;;;;;;26.08;12.85;;;;;;;20.16;100.00;100054.63;4991001;28;20201;-75
2023/09/12 06:48:46;;;;;;;26.23;13.32;;;;;;;20.38;100.00;100053.00;4991937;28;20287;-75
2023/09/12 06:51:14;;;;;;;20.83;11.93;;;;;;;20.52;100.00;100055.28;4991263;28;20217;-75
2023/09/12 06:53:43;;;;;;;26.70;13.82;;;;;;;20.56;100.00;100057.84;4989269;28;20280;-75
2023/09/12 06:56:10;;;;;;;24.83;13.93;;;;;;;20.62;100.00;100049.56;4990273;28;20205;-76
2023/09/12 06:58:39;;;;;;;26.13;13.98;;;;;;;20.61;100.00;100057.69;4991643;28;20597;-75
2023/09/12 07:01:07;;;;;;;19.65;12.77;;;;;;;20.70;100.00;100065.44;4991022;28;20349;-75
2023/09/12 07:03:35;;;;;;;27.63;14.43;;;;;;;20.81;100.00;100063.28;4992661;28;20232;-76
2023/09/12 07:06:03;;;;;;;21.02;13.20;;;;;;;20.87;100.00;100059.50;4989000;28;20200;-76
2023/09/12 07:08:30;;;;;;;33.60;14.35;;;;;;;21.09;100.00;100065.00;5005381;28;20232;-76
2023/09/12 07:10:57;;;;;;;25.48;13.43;;;;;;;21.34;100.00;100049.78;4983979;28;20314;-74
2023/09/12 07:13:23;;;;;;;23.40;13.50;;;;;;;21.50;100.00;100056.38;4984255;28;22024;-74
2023/09/12 07:15:50;;;;;;;23.08;13.23;;;;;;;21.94;100.00;100061.03;4984952;28;20208;-76
2023/09/12 07:18:18;;;;;;;26.27;13.50;;;;;;;22.53;100.00;100056.00;4985965;28;20296;-75
2023/09/12 07:20:45;;;;;;;26.88;13.00;;;;;;;23.10;100.00;100057.22;4990881;28;20220;-75
2023/09/12 07:23:12;;;;;;;24.77;12.55;;;;;;;23.54;100.00;100049.84;4989144;28;20668;-75
2023/09/12 07:25:41;;;;;;;22.63;13.05;;;;;;;23.47;100.00;100063.72;4988337;28;20224;-75
2023/09/12 07:28:08;;;;;;;27.05;12.23;;;;;;;23.75;100.00;100062.44;4987427;28;20654;-74
2023/09/12 07:30:35;;;;;;;21.50;11.68;;;;;;;23.95;100.00;100063.31;4992599;28;20255;-74
2023/09/12 07:33:04;;;;;;;20.10;11.73;;;;;;;23.95;100.00;100061.50;4988882;28;20219;-75
2023/09/12 07:35:30;;;;;;;25.50;12.40;;;;;;;23.75;100.00;100056.16;4984018;28;20296;-74
2023/09/12 07:37:57;;;;;;;23.42;11.85;;;;;;;23.47;100.00;100058.31;4983578;28;20207;-76
2023/09/12 07:40:23;;;;;;;23.17;12.50;;;;;;;;;;4982998;28;20221;-75
2023/09/12 07:42:49;;;;;;;24.27;12.13;;;;;;;23.28;100.00;100056.44;5038223;23;20315;-72
2023/09/12 07:45:16;;;;;;;21.38;11.95;;;;;;;23.34;100.00;100056.16;4999572;28;20292;-69
2023/09/12 07:47:42;;;;;;;21.80;11.82;;;;;;;23.19;100.00;100045.13;4997945;28;20207;-72
2023/09/12 07:50:09;;;;;;;23.05;11.10;;;;;;;23.29;100.00;100052.78;4994886;28;20201;-71
2023/09/12 07:52:35;;;;;;;18.65;10.70;;;;;;;23.35;100.00;100040.81;4983070;28;20235;-69
2023/09/12 07:55:03;;;;;;;21.92;10.93;;;;;;;23.52;100.00;100053.56;4982922;28;20236;-71
2023/09/12 07:57:29;;;;;;;19.95;11.20;;;;;;;23.50;100.00;100056.34;4982103;28;20200;-70
2023/09/12 07:59:56;;;;;;;33.80;12.15;;;;;;;23.47;100.00;100061.88;4985211;28;20240;-72
2023/09/12 08:02:23;;;;;;;29.52;11.52;;;;;;;23.48;100.00;100058.25;4977283;28;20726;-71
2023/09/12 08:04:51;;;;;;;21.63;12.55;;;;;;;23.43;100.00;100058.44;4978525;28;20201;-70
2023/09/12 08:07:17;;;;;;;26.65;10.60;;;;;;;23.60;100.00;100063.13;4974348;28;20249;-69
2023/09/12 08:09:48;;;;;;;23.13;11.50;;;;;;;23.77;100.00;100065.06;4977968;28;20689;-71
2023/09/12 08:12:14;;;;;;;20.50;10.10;;;;;;;23.98;100.00;100061.34;4981062;28;20593;-72
2023/09/12 08:14:40;;;;;;;22.70;10.18;;;;;;;24.15;100.00;100055.16;4974088;28;20201;-71
2023/09/12 08:17:09;;;;;;;18.73;10.82;;;;;;;24.34;100.00;100060.59;4976493;28;20704;-70
2023/09/12 08:19:35;;;;;;;26.23;11.30;;;;;;;24.52;100.00;100073.25;4984672;28;20593;-72
2023/09/12 08:22:02;;;;;;;25.75;10.82;;;;;;;24.62;100.00;100070.97;4972975;28;20708;-72
2023/09/12 08:24:28;;;;;;;20.45;9.30;;;;;;;24.78;100.00;100077.34;4970565;28;20302;-72
2023/09/12 08:26:55;;;;;;;19.80;9.85;;;;;;;24.94;100.00;100072.06;4977490;28;20209;-71
2023/09/12 08:29:21;;;;;;;22.70;10.85;;;;;;;25.03;100.00;100066.19;4975566;28;20624;-71
2023/09/12 08:31:48;;;;;;;19.65;10.50;;;;;;;24.91;100.00;100073.09;4980409;28;20227;-72
2023/09/12 08:34:14;;;;;;;19.50;9.57;;;;;;;24.93;100.00;100073.91;4984430;28;20208;-73
2023/09/12 08:36:41;;;;;;;24.10;10.00;;;;;;;25.05;100.00;100067.00;4983954;28;20201;-72
2023/09/12 08:39:12;;;;;;;15.55;8.82;;;;;;;25.16;100.00;100074.56;4988038;28;20308;-72
2023/09/12 08:41:39;;;;;;;21.55;9.68;;;;;;;25.20;100.00;100065.31;4982907;28;20228;-72
2023/09/12 08:44:06;;;;;;;18.45;9.45;;;;;;;25.30;100.00;100058.47;4988084;28;20273;-72
2023/09/12 08:46:36;;;;;;;24.17;9.63;;;;;;;25.54;100.00;100076.16;4987437;28;20204;-72
2023/09/12 08:49:06;;;;;;;24.55;8.68;;;;;;;25.56;100.00;100068.81;4982343;28;20243;-72
2023/09/12 08:51:32;;;;;;;20.35;8.02;;;;;;;25.64;100.00;100068.41;4989925;28;20233;-72
2023/09/12 08:53:59;;;;;;;19.00;8.00;;;;;;;25.83;100.00;100069.19;4987738;28;20196;-72
2023/09/12 08:56:26;;;;;;;16.75;8.68;;;;;;;25.98;97.42;100062.03;4988155;28;20201;-72
2023/09/12 08:58:54;;;;;;;26.00;7.90;;;;;;;25.99;97.15;100061.06;4986322;28;20217;-72
2023/09/12 09:01:21;;;;;;;23.40;9.68;;;;;;;26.08;98.86;100076.88;4982326;28;20220;-70
2023/09/12 09:03:48;;;;;;;19.50;8.98;;;;;;;26.25;98.39;100084.06;4981050;28;20201;-70
2023/09/12 09:06:16;;;;;;;18.33;8.63;;;;;;;26.39;97.54;100080.59;4976544;28;20569;-72
2023/09/12 09:08:44;;;;;;;20.77;8.27;;;;;;;26.56;97.05;100079.66;4989632;28;20666;-73
2023/09/12 09:11:10;;;;;;;18.77;7.95;;;;;;;26.69;97.40;100084.28;4984015;28;20269;-72
2023/09/12 09:13:37;;;;;;;20.98;8.68;;;;;;;26.75;93.96;100083.91;4988263;28;20205;-72
2023/09/12 09:16:18;;;;;;;20.02;8.20;;;;;;;26.76;91.76;100085.66;4991625;28;20209;-73
2023/09/12 09:18:51;;;;;;;16.30;7.82;;;;;;;26.83;91.51;100084.38;4981534;28;20360;-71
2023/09/12 09:21:19;;;;;;;16.77;7.80;;;;;;;26.97;92.38;100090.81;4979844;28;20229;-73
2023/09/12 09:23:47;;;;;;;19.40;7.88;;;;;;;27.01;90.60;100078.84;4981659;28;20665;-72
2023/09/12 09:26:13;;;;;;;22.55;8.02;;;;;;;27.14;89.19;100086.16;4985423;28;20292;-72
2023/09/12 09:28:40;;;;;;;18.52;7.45;;;;;;;27.17;81.73;100080.53;4990680;28;20213;-72
2023/09/12 09:31:11;;;;;;;16.33;7.00;;;;;;;27.26;83.22;100081.84;4984245;28;20223;-70
2023/09/12 09:33:38;;;;;;;13.00;7.18;;;;;;;27.33;81.30;100068.75;4990172;28;20204;-72
2023/09/12 09:36:07;;;;;;;18.10;8.20;;;;;;;27.36;79.90;100072.16;4981067;28;20210;-72
2023/09/12 09:38:35;;;;;;;13.93;7.22;;;;;;;27.49;75.59;100066.84;4986021;28;20209;-72
2023/09/12 09:41:06;;;;;;;17.17;7.60;;;;;;;27.47;70.48;100063.34;4991512;28;20304;-72
2023/09/12 09:43:33;;;;;;;16.63;6.88;;;;;;;27.58;69.76;100062.66;4987683;28;20212;-72
2023/09/12 09:45:59;;;;;;;19.65;7.35;;;;;;;27.72;68.01;100057.28;4984245;28;20224;-73
2023/09/12 09:48:32;;;;;;;19.52;6.95;;;;;;;27.74;66.02;100042.59;4982613;28;20216;-72
2023/09/12 09:51:03;;;;;;;16.70;7.95;;;;;;;27.96;64.22;100052.13;4985752;28;20225;-72
2023/09/12 09:53:32;;;;;;;15.18;6.75;;;;;;;28.14;64.20;100059.13;4983453;28;20699;-72
2023/09/12 09:56:12;;;;;;;19.00;7.50;;;;;;;28.31;64.13;100056.19;4983395;28;20197;-72
2023/09/12 09:58:51;;;;;;;16.33;6.50;;;;;;;28.48;62.44;100046.94;4979590;28;20626;-72
2023/09/12 10:01:20;;;;;;;15.82;7.65;;;;;;;28.59;60.08;100048.94;4987710;28;20415;-71
2023/09/12 10:03:51;;;;;;;17.15;7.78;;;;;;;28.43;59.50;100045.50;5003172;28;20201;-70
2023/09/12 10:06:18;;;;;;;14.38;7.93;;;;;;;28.50;59.62;100052.28;4987593;28;20228;-72
2023/09/12 10:08:51;;;;;;;16.70;7.40;;;;;;;28.49;59.90;100043.25;4983085;28;20198;-72
2023/09/12 10:11:20;;;;;;;18.38;8.23;;;;;;;28.12;59.97;100041.13;4978075;28;20725;-71
2023/09/12 10:13:52;;;;;;;12.45;7.43;;;;;;;28.34;60.46;100038.78;4984730;28;20215;-70
2023/09/12 10:16:22;;;;;;;16.27;7.65;;;;;;;28.54;60.89;100045.66;4979172;28;20216;-73
2023/09/12 10:18:59;;;;;;;14.05;7.13;;;;;;;28.63;59.03;100045.03;4988758;28;20670;-72
2023/09/12 10:21:33;;;;;;;9.98;7.35;;;;;;;28.64;58.98;100052.25;4977837;28;21940;-70
2023/09/12 10:24:02;;;;;;;15.77;7.30;;;;;;;28.79;59.28;100036.69;4979735;28;20206;-72
2023/09/12 10:26:31;;;;;;;16.75;8.02;;;;;;;28.80;58.56;100027.53;4980797;28;20212;-72
2023/09/12 10:28:59;;;;;;;18.13;8.00;;;;;;;28.90;57.02;100035.03;4976684;28;20211;-72
2023/09/12 10:31:26;;;;;;;13.80;7.82;;;;;;;28.80;57.18;100033.00;4985671;28;20261;-73
2023/09/12 10:33:53;;;;;;;18.40;8.13;;;;;;;28.97;57.42;100030.91;4980231;28;20296;-70
2023/09/12 10:36:20;;;;;;;12.10;6.63;;;;;;;29.24;56.47;100022.69;4988210;28;20197;-73
2023/09/12 10:38:48;;;;;;;13.13;7.25;;;;;;;29.46;55.54;100019.34;4987618;28;20311;-71
2023/09/12 10:41:15;;;;;;;13.57;7.43;;;;;;;29.54;55.26;100022.41;4994324;28;20256;-72
2023/09/12 10:43:47;;;;;;;21.80;7.95;;;;;;;29.62;54.05;100020.03;4986719;28;20642;-73
2023/09/12 10:46:14;;;;;;;13.23;7.20;;;;;;;29.71;53.54;100010.28;4980150;28;20652;-73
2023/09/12 10:48:41;;;;;;;16.77;7.70;;;;;;;29.82;53.06;100018.56;4990820;28;20746;-71
2023/09/12 10:51:09;;;;;;;18.40;7.50;;;;;;;29.60;52.09;100034.72;4971443;28;20218;-74
2023/09/12 10:53:36;;;;;;;14.38;7.80;;;;;;;29.04;53.74;100014.13;4987990;28;20696;-72
2023/09/12 10:56:12;;;;;;;21.77;9.02;;;;;;;29.13;53.38;100041.63;4990756;28;20346;-72
2023/09/12 10:59:06;;;;;;;13.25;7.60;;;;;;;29.32;52.99;100036.66;4986023;28;20204;-71
2023/09/12 11:01:34;;;;;;;12.48;8.50;;;;;;;29.27;53.60;100035.25;4987821;28;20221;-72
2023/09/12 11:04:19;;;;;;;13.18;7.35;;;;;;;29.09;54.31;100028.31;4989787;28;20397;-72
2023/09/12 11:06:49;;;;;;;20.45;8.10;;;;;;;29.29;53.96;100023.25;4974318;28;20236;-71
2023/09/12 11:09:24;;;;;;;18.02;8.90;;;;;;;29.31;54.88;100023.13;4975726;28;20675;-73
2023/09/12 11:12:05;;;;;;;16.98;8.75;;;;;;;29.16;54.99;100005.09;4988797;28;20252;-72